Time;durP1;ratioP1;P1;durP2;ratioP2;P2;SDS_P1;SDS_P2;PMS_P1;PMS_P2;Temp;Humidity;BMP_temperature;BMP_pressure;BME280_temperature;BME280_humidity;BME280_pressure;Samples;Min_cycle;Max_cycle;Signal;HPM_P1;HPM_P2
2022/01/17 05:30:27;;;;;;;;;26.00;19.00;;;;;8.62;72.01;103171.03;5056114;27;46476;-73
2022/01/17 05:32:53;;;;;;;;;25.25;21.25;;;;;8.56;72.29;103159.44;5014249;28;45575;-73
2022/01/17 05:35:20;;;;;;;;;25.75;22.50;;;;;8.58;72.41;103163.03;5014633;28;45404;-73
2022/01/17 05:37:46;;;;;;;;;26.00;21.00;;;;;8.52;72.48;103163.88;5014564;28;46203;-72
2022/01/17 05:40:14;;;;;;;;;31.25;27.00;;;;;8.43;72.65;103154.97;5014427;28;45244;-73
2022/01/17 05:42:40;;;;;;;;;37.75;25.75;;;;;8.44;72.60;103179.03;5014530;28;45677;-72
2022/01/17 05:45:07;;;;;;;;;27.75;22.25;;;;;8.39;73.25;103175.47;5014379;28;45526;-75
2022/01/17 05:47:32;;;;;;;;;21.00;20.50;;;;;8.40;73.22;103168.34;5014477;28;46321;-73
2022/01/17 05:49:59;;;;;;;;;40.25;29.25;;;;;8.37;73.54;103184.38;5014099;28;45372;-72
2022/01/17 05:52:24;;;;;;;;;28.50;24.50;;;;;8.25;74.12;103170.03;5014619;28;45407;-73
2022/01/17 05:54:50;;;;;;;;;32.50;27.00;;;;;8.31;73.97;103187.94;5014306;28;45295;-72
2022/01/17 05:57:17;;;;;;;;;32.50;30.25;;;;;8.30;73.81;103189.66;5014421;28;45302;-73
2022/01/17 05:59:43;;;;;;;;;26.00;25.50;;;;;8.27;74.14;103191.44;5013548;28;45276;-72
2022/01/17 06:02:08;;;;;;;;;33.25;26.75;;;;;8.18;73.75;103172.69;5015022;28;45514;-73
2022/01/17 06:04:34;;;;;;;;;28.00;21.25;;;;;8.28;73.70;103193.22;5014393;28;46986;-72
2022/01/17 06:06:59;;;;;;;;;35.50;22.75;;;;;8.26;73.46;103187.88;5034204;28;46155;-73
2022/01/17 06:09:24;;;;;;;;;30.00;22.75;;;;;8.23;72.80;103184.31;5034231;28;45355;-73
2022/01/17 06:11:50;;;;;;;;;19.50;19.00;;;;;8.18;73.17;103186.94;5035800;28;45387;-75
2022/01/17 06:14:17;;;;;;;;;36.25;26.50;;;;;8.18;72.92;103183.38;5017652;28;45490;-75
2022/01/17 06:16:46;;;;;;;;;23.25;20.25;;;;;8.06;73.07;103168.22;5034358;28;45960;-78
2022/01/17 06:19:12;;;;;;;;;24.50;21.25;;;;;8.14;73.30;103192.28;5034038;28;45479;-77
2022/01/17 06:21:37;;;;;;;;;25.50;21.25;;;;;7.95;72.93;103169.97;5034576;28;45543;-74
2022/01/17 06:24:05;;;;;;;;;31.75;21.75;;;;;7.96;73.84;103172.66;5033789;28;45548;-77
2022/01/17 06:26:32;;;;;;;;;20.75;19.00;;;;;7.97;73.49;103181.56;5034584;28;45528;-79
2022/01/17 06:28:57;;;;;;;;;30.25;27.25;;;;;8.03;74.14;103184.22;5034162;28;45472;-76
2022/01/17 06:31:22;;;;;;;;;20.50;20.50;;;;;8.03;73.70;103194.03;5041797;28;45789;-77
2022/01/17 06:33:48;;;;;;;;;29.50;22.25;;;;;7.84;74.07;103183.25;5053846;28;45323;-77
2022/01/17 06:36:13;;;;;;;;;21.25;21.25;;;;;7.95;73.75;103218.94;5054499;28;46110;-77
2022/01/17 06:38:38;;;;;;;;;25.25;23.00;;;;;7.94;73.74;103214.47;5053770;28;45518;-74
2022/01/17 06:41:04;;;;;;;;;24.00;24.00;;;;;7.82;74.30;103214.44;5054919;28;45331;-73
2022/01/17 06:43:29;;;;;;;;;26.00;24.25;;;;;7.80;74.04;103231.31;5053823;28;46118;-73
2022/01/17 06:45:55;;;;;;;;;29.50;22.75;;;;;7.74;74.22;103223.28;5054151;28;46044;-73
2022/01/17 06:48:20;;;;;;;;;28.75;23.50;;;;;7.45;74.49;103196.41;5053449;28;45332;-77
2022/01/17 06:50:45;;;;;;;;;31.25;24.00;;;;;7.74;74.03;103258.00;5054282;28;45288;-77
2022/01/17 06:53:11;;;;;;;;;30.75;24.50;;;;;7.73;74.55;103264.22;5053340;28;45628;-73
2022/01/17 06:55:36;;;;;;;;;33.50;22.75;;;;;7.72;74.52;103247.31;5053901;28;46326;-74
2022/01/17 06:58:02;;;;;;;;;26.50;22.75;;;;;7.76;74.53;103232.19;5053363;28;45311;-73
2022/01/17 07:00:27;;;;;;;;;30.25;21.25;;;;;7.69;74.44;103217.91;5035557;28;45483;-74
2022/01/17 07:02:53;;;;;;;;;31.25;25.50;;;;;7.80;74.58;103234.00;5053095;28;45557;-73
2022/01/17 07:05:39;;;;;;;;;20.75;18.50;;;;;7.73;74.91;103243.75;5048514;28;46144;-74
2022/01/17 07:08:04;;;;;;;;;29.25;23.00;;;;;7.75;74.41;103265.09;5050318;28;45550;-76
2022/01/17 07:10:29;;;;;;;;;27.00;24.00;;;;;7.74;74.43;103247.31;5047545;28;46003;-72
2022/01/17 07:12:56;;;;;;;;;29.00;23.50;;;;;7.78;74.12;103255.34;5053408;28;45832;-73
2022/01/17 07:15:21;;;;;;;;;32.25;22.50;;;;;7.55;74.39;103241.88;5055216;28;46381;-77
2022/01/17 07:17:47;;;;;;;;;27.25;23.25;;;;;7.75;74.53;103279.34;5055624;28;45362;-74
2022/01/17 07:20:12;;;;;;;;;25.25;21.00;;;;;7.69;74.78;103283.75;5056049;28;45829;-79
2022/01/17 07:22:38;;;;;;;;;22.75;22.75;;;;;7.78;74.57;103303.41;5053667;28;45563;-75
2022/01/17 07:25:04;;;;;;;;;36.25;22.50;;;;;7.81;74.46;103316.78;5054885;28;46003;-72
2022/01/17 07:27:29;;;;;;;;;29.75;23.25;;;;;7.79;74.50;103320.31;5054911;28;45346;-76
2022/01/17 07:29:55;;;;;;;;;22.00;19.75;;;;;7.77;74.66;103296.28;5057076;28;45319;-74
2022/01/17 07:32:20;;;;;;;;;27.00;26.25;;;;;7.75;74.07;103287.34;5037570;28;46642;-70
2022/01/17 07:34:45;;;;;;;;;32.50;26.00;;;;;7.67;74.18;103291.75;5056203;28;46194;-72
2022/01/17 07:37:11;;;;;;;;;29.25;25.50;;;;;7.52;74.79;103267.63;5056099;28;45371;-71
2022/01/17 07:39:36;;;;;;;;;35.00;29.75;;;;;7.55;74.65;103286.34;5056364;28;45481;-71
2022/01/17 07:42:02;;;;;;;;;29.25;26.00;;;;;7.52;74.96;103294.31;5055889;28;45522;-76
2022/01/17 07:44:29;;;;;;;;;34.50;29.25;;;;;7.47;75.10;103277.41;5055821;28;45459;-70
2022/01/17 07:46:58;;;;;;;;;29.25;25.75;;;;;7.34;74.59;103259.47;5047127;28;45479;-71
2022/01/17 07:49:25;;;;;;;;;34.75;28.25;;;;;7.45;74.89;103288.06;5064316;28;45717;-73
2022/01/17 07:52:03;;;;;;;;;37.75;30.75;;;;;7.35;75.25;103278.19;5055630;28;45402;-71
2022/01/17 07:54:31;;;;;;;;;36.75;30.00;;;;;7.29;75.30;103296.81;5043473;28;47374;-70
2022/01/17 07:56:59;;;;;;;;;40.50;27.50;;;;;7.30;75.74;103300.38;5036941;28;45402;-69
2022/01/17 07:59:25;;;;;;;;;39.75;28.25;;;;;7.28;75.35;103308.38;5055674;28;45385;-70
2022/01/17 08:01:51;;;;;;;;;32.75;30.75;;;;;7.22;75.68;103311.91;5037385;28;46118;-70
2022/01/17 08:04:17;;;;;;;;;35.00;30.25;;;;;7.14;75.91;103305.59;5054925;28;45534;-71
2022/01/17 08:06:42;;;;;;;;;41.50;31.75;;;;;7.14;75.73;103305.59;5055703;28;45856;-69
2022/01/17 08:09:25;;;;;;;;;41.75;29.50;;;;;7.20;75.78;103310.97;5054978;28;45490;-71
2022/01/17 08:11:51;;;;;;;;;37.50;31.75;;;;;7.16;75.64;103293.13;5055120;28;46070;-71
2022/01/17 08:14:16;;;;;;;;;35.25;30.25;;;;;7.22;76.20;103311.00;5055883;28;45371;-70
2022/01/17 08:16:42;;;;;;;;;34.00;28.50;;;;;7.25;75.96;103312.78;5055812;28;45382;-70
2022/01/17 08:19:07;;;;;;;;;48.00;41.25;;;;;7.27;75.61;103313.69;5054725;28;45700;-70
2022/01/17 08:21:33;;;;;;;;;38.75;34.75;;;;;7.13;76.38;103313.56;5054676;28;45310;-71
2022/01/17 08:24:00;;;;;;;;;47.75;34.75;;;;;7.03;76.68;103328.59;5053200;28;45658;-69
2022/01/17 08:26:26;;;;;;;;;45.00;31.50;;;;;6.99;76.58;103318.75;5055522;28;45343;-70
2022/01/17 08:28:52;;;;;;;;;40.25;33.75;;;;;7.07;76.45;103334.84;5037012;28;45499;-70
2022/01/17 08:31:18;;;;;;;;;35.00;31.25;;;;;7.02;77.28;103341.91;5055063;28;45928;-70
2022/01/17 08:33:43;;;;;;;;;38.50;32.75;;;;;7.01;76.93;103319.66;5054058;28;46155;-70
2022/01/17 08:36:11;;;;;;;;;37.25;27.75;;;;;7.04;77.10;103335.72;5054827;28;45367;-70
2022/01/17 08:38:40;;;;;;;;;53.25;36.00;;;;;7.07;76.49;103337.50;5037082;28;45419;-70
2022/01/17 08:41:07;;;;;;;;;35.50;29.25;;;;;7.04;76.83;103316.16;5055413;28;45327;-69
2022/01/17 08:43:32;;;;;;;;;40.00;33.75;;;;;7.13;76.62;103343.81;5037202;28;47707;-71
2022/01/17 08:45:58;;;;;;;;;30.50;27.75;;;;;7.10;76.45;103335.78;5055548;28;45367;-69
2022/01/17 08:48:25;;;;;;;;;39.25;32.50;;;;;7.09;76.20;103349.97;5055044;28;45286;-69
2022/01/17 08:50:51;;;;;;;;;45.75;33.75;;;;;7.07;76.48;103341.06;5055289;28;45420;-70
2022/01/17 08:53:17;;;;;;;;;29.75;23.50;;;;;7.12;76.27;103343.78;5054719;28;45402;-69
2022/01/17 08:55:44;;;;;;;;;26.25;22.50;;;;;7.16;76.04;103346.50;5055343;28;45359;-68
2022/01/17 08:58:11;;;;;;;;;32.25;27.75;;;;;7.14;76.10;103342.94;5055402;28;45395;-70
2022/01/17 09:00:37;;;;;;;;;45.50;35.75;;;;;7.23;75.87;103350.09;5055050;28;45438;-69
2022/01/17 09:03:04;;;;;;;;;41.25;31.75;;;;;7.12;75.93;103336.69;5054450;28;45705;-69
2022/01/17 09:05:31;;;;;;;;;36.75;30.50;;;;;7.25;76.25;103361.69;5053315;28;45469;-69
2022/01/17 09:07:57;;;;;;;;;37.00;30.75;;;;;7.29;76.17;103352.84;5068364;28;45495;-69
2022/01/17 09:10:24;;;;;;;;;34.75;28.25;;;;;7.36;75.87;103341.34;5035924;28;46580;-70
2022/01/17 09:12:51;;;;;;;;;41.50;32.25;;;;;7.50;76.27;103355.69;5054260;28;46165;-69
2022/01/17 09:15:17;;;;;;;;;45.50;30.50;;;;;7.49;75.27;103353.00;5053431;28;45548;-70
2022/01/17 09:17:42;;;;;;;;;40.25;34.50;;;;;7.54;75.38;103367.31;5054865;28;45445;-70
2022/01/17 09:20:09;;;;;;;;;36.00;33.50;;;;;7.55;75.20;103372.66;5054245;28;45418;-69
2022/01/17 09:22:34;;;;;;;;;41.50;36.00;;;;;7.61;75.25;103371.81;5058062;28;45935;-71
2022/01/17 09:25:05;;;;;;;;;34.50;29.50;;;;;7.66;74.89;103377.19;5053529;28;45512;-70
2022/01/17 09:27:31;;;;;;;;;35.50;31.25;;;;;7.67;74.74;103379.88;5037882;28;45317;-70
2022/01/17 09:29:56;;;;;;;;;39.50;33.25;;;;;7.77;74.51;103405.75;5053269;28;45445;-71
2022/01/17 09:32:21;;;;;;;;;34.25;32.00;;;;;7.73;74.16;103414.66;5053268;28;46405;-72
2022/01/17 09:34:47;;;;;;;;;35.75;27.25;;;;;7.70;73.90;103413.72;5053251;28;45378;-70
2022/01/17 09:37:13;;;;;;;;;37.75;28.25;;;;;7.69;74.21;103410.16;5035380;28;45395;-71
2022/01/17 09:39:38;;;;;;;;;38.50;30.00;;;;;7.74;74.41;103429.75;5054339;28;45402;-70
2022/01/17 09:42:08;;;;;;;;;34.00;27.25;;;;;7.75;74.50;103428.88;5055519;28;45998;-72
2022/01/17 09:44:35;;;;;;;;;30.50;25.50;;;;;7.63;73.74;103394.09;5057514;28;45328;-70
2022/01/17 09:47:05;;;;;;;;;31.00;27.75;;;;;7.76;74.38;103414.66;5054099;28;45340;-70
2022/01/17 09:49:36;;;;;;;;;32.50;30.00;;;;;7.83;74.00;103397.78;5053605;28;45433;-70
2022/01/17 09:52:13;;;;;;;;;35.75;31.50;;;;;7.93;73.59;103399.66;5053544;28;46642;-71
2022/01/17 09:54:42;;;;;;;;;36.25;23.75;;;;;8.03;74.09;103405.97;5053729;28;45563;-73
2022/01/17 09:57:11;;;;;;;;;32.50;30.00;;;;;8.09;73.70;103403.31;5054217;28;45328;-71
2022/01/17 09:59:39;;;;;;;;;33.25;30.00;;;;;8.23;73.33;103416.81;5053262;28;45506;-72
2022/01/17 10:02:07;;;;;;;;;31.25;29.50;;;;;8.35;72.46;103427.56;5054025;28;46531;-70
2022/01/17 10:04:33;;;;;;;;;32.00;30.25;;;;;8.39;72.10;103437.44;5058256;28;45359;-69
2022/01/17 10:06:59;;;;;;;;;29.00;28.25;;;;;8.38;72.41;103440.97;5063862;28;45386;-71
2022/01/17 10:09:27;;;;;;;;;36.50;25.75;;;;;8.36;71.95;103432.03;5054118;28;45523;-69
2022/01/17 10:12:13;;;;;;;;;46.25;35.25;;;;;8.44;72.68;103443.69;5036018;28;46031;-71
2022/01/17 10:14:45;;;;;;;;;33.50;25.25;;;;;8.44;72.02;103448.13;5053989;28;45367;-69
2022/01/17 10:17:16;;;;;;;;;38.00;29.50;;;;;8.39;71.88;103424.06;5053869;28;45320;-71
2022/01/17 10:19:43;;;;;;;;;39.50;26.75;;;;;8.34;71.80;103432.03;5053757;28;45507;-69
2022/01/17 10:22:19;;;;;;;;;34.00;30.00;;;;;8.43;71.83;103443.66;5053751;28;45454;-70
2022/01/17 10:30:39;;;;;;;;;27.50;21.50;;;;;8.60;71.48;103448.22;5032289;28;45618;-69
2022/01/17 10:35:57;;;;;;;;;29.75;27.25;;;;;8.64;71.33;103439.34;5038383;28;45350;-71
2022/01/17 10:38:24;;;;;;;;;39.75;27.50;;;;;8.64;71.73;103431.31;5050811;28;45516;-70
2022/01/17 10:40:57;;;;;;;;;42.00;27.75;;;;;8.75;71.33;103459.91;5052362;28;45386;-72
2022/01/17 10:43:34;;;;;;;;;36.00;26.50;;;;;8.60;70.69;103441.97;5052627;28;47044;-70
2022/01/17 10:46:06;;;;;;;;;36.00;30.50;;;;;8.65;71.03;103458.97;5036742;28;45439;-71
2022/01/17 10:48:40;;;;;;;;;31.75;25.25;;;;;8.73;71.42;103454.53;5056312;28;45514;-73
2022/01/17 10:51:07;;;;;;;;;32.25;29.00;;;;;8.80;71.10;103455.47;5055981;28;45346;-72
2022/01/17 10:53:33;;;;;;;;;29.25;26.75;;;;;8.81;71.22;103462.59;5056889;28;46400;-71
2022/01/17 10:56:07;;;;;;;;;32.75;28.50;;;;;8.81;70.99;103450.13;5056592;28;45836;-73
2022/01/17 10:58:35;;;;;;;;;27.50;22.50;;;;;8.80;70.52;103440.31;5065024;28;45484;-72
2022/01/17 11:01:04;;;;;;;;;29.50;26.75;;;;;8.77;71.20;103434.94;5038248;28;47471;-71
2022/01/17 11:03:33;;;;;;;;;33.50;29.25;;;;;8.82;71.09;103416.25;5038509;28;46225;-70
2022/01/17 11:06:03;;;;;;;;;42.00;30.75;;;;;8.86;70.73;103410.91;5056035;28;45577;-68
2022/01/17 11:08:30;;;;;;;;;34.00;27.50;;;;;8.80;71.23;103399.28;5062842;28;45424;-75
2022/01/17 11:11:00;;;;;;;;;36.50;27.75;;;;;8.90;71.26;103402.00;5056008;28;45553;-73
2022/01/17 11:13:31;;;;;;;;;41.25;35.00;;;;;8.86;70.89;103399.31;5055857;28;45536;-72
2022/01/17 11:15:59;;;;;;;;;37.50;32.75;;;;;8.97;69.91;103397.56;5055921;28;45514;-73
2022/01/17 11:18:28;;;;;;;;;36.25;33.25;;;;;9.05;70.55;103402.06;5055365;28;45419;-75
2022/01/17 11:21:05;;;;;;;;;40.75;35.25;;;;;9.02;70.06;103382.41;5055783;28;45371;-75
2022/01/17 11:23:31;;;;;;;;;32.75;28.25;;;;;9.20;70.48;103402.97;5055623;28;45425;-76
2022/01/17 11:25:57;;;;;;;;;30.75;28.00;;;;;9.27;70.17;103408.34;5038162;28;46464;-73
2022/01/17 11:28:34;;;;;;;;;37.00;30.75;;;;;9.25;69.92;103407.47;5037745;28;45419;-72
2022/01/17 11:31:05;;;;;;;;;41.25;33.50;;;;;9.33;70.08;103397.66;5055536;28;45402;-76
2022/01/17 11:33:30;;;;;;;;;40.25;28.50;;;;;9.46;69.58;103398.56;5055268;28;45548;-76
2022/01/17 11:35:56;;;;;;;;;32.50;27.75;;;;;9.50;69.23;103381.63;5055904;28;45312;-73
2022/01/17 11:38:43;;;;;;;;;33.00;30.25;;;;;9.51;69.35;103371.81;5038424;28;45336;-72
2022/01/17 11:41:36;;;;;;;;;23.00;22.50;;;;;9.62;69.30;103392.31;5055850;28;45479;-71
2022/01/17 11:44:05;;;;;;;;;36.75;30.25;;;;;9.41;69.12;103381.59;5044358;28;45458;-71
2022/01/17 11:46:33;;;;;;;;;43.75;33.75;;;;;9.24;69.70;103378.91;5055990;28;45300;-74
2022/01/17 11:49:05;;;;;;;;;46.50;35.75;;;;;9.25;69.50;103399.44;5055966;28;45290;-72
2022/01/17 11:51:49;;;;;;;;;37.50;32.25;;;;;9.21;70.26;103389.59;5055304;28;45616;-72
2022/01/17 11:54:20;;;;;;;;;41.00;31.50;;;;;9.25;70.25;103382.47;5055905;28;46625;-72
2022/01/17 11:56:51;;;;;;;;;37.00;34.75;;;;;9.31;70.18;103398.53;5054999;28;45479;-74
2022/01/17 11:59:46;;;;;;;;;36.75;34.50;;;;;9.33;70.16;103389.63;5055968;28;45492;-72
2022/01/17 12:02:28;;;;;;;;;39.00;32.00;;;;;9.39;70.36;103386.94;5037145;28;46540;-72
2022/01/17 12:05:06;;;;;;;;;34.50;29.50;;;;;9.44;70.32;103370.91;5055317;28;46176;-70
2022/01/17 12:07:55;;;;;;;;;42.25;31.75;;;;;9.34;69.68;103355.72;5055723;28;45389;-71
2022/01/17 12:10:29;;;;;;;;;32.75;29.00;;;;;9.33;70.23;103349.47;5055733;28;45387;-71
2022/01/17 12:13:22;;;;;;;;;31.00;30.00;;;;;9.41;70.40;103355.72;5055363;28;45486;-70
2022/01/17 12:16:18;;;;;;;;;34.50;30.75;;;;;9.44;70.18;103352.16;5036878;28;47928;-73
2022/01/17 12:18:54;;;;;;;;;35.00;30.75;;;;;9.47;69.77;103354.81;5055775;28;45653;-72
2022/01/17 12:21:32;;;;;;;;;38.25;28.00;;;;;9.45;69.95;103380.69;5054740;28;45514;-71
2022/01/17 12:24:19;;;;;;;;;31.25;27.75;;;;;9.44;70.11;103411.06;5055367;28;46075;-71
2022/01/17 12:27:02;;;;;;;;;30.50;26.50;;;;;9.47;70.35;103416.41;5056334;28;46711;-71
2022/01/17 12:29:33;;;;;;;;;27.25;26.00;;;;;9.55;70.43;103413.75;5056212;28;45327;-71
2022/01/17 12:31:59;;;;;;;;;41.50;31.00;;;;;9.55;70.26;103395.88;5036453;28;45396;-72
2022/01/17 12:34:26;;;;;;;;;32.75;28.75;;;;;9.60;69.55;103406.63;5055015;28;45508;-73
2022/01/17 12:36:56;;;;;;;;;40.50;31.00;;;;;9.59;69.92;103410.19;5036669;28;47384;-73
2022/01/17 12:39:23;;;;;;;;;30.50;28.00;;;;;9.60;69.65;103420.00;5055351;28;45449;-72
2022/01/17 12:41:58;;;;;;;;;28.25;27.50;;;;;9.63;69.97;103402.13;5054999;28;45494;-75
2022/01/17 12:44:28;;;;;;;;;37.75;34.00;;;;;9.58;69.19;103378.94;5062976;28;45447;-71
2022/01/17 12:46:57;;;;;;;;;40.00;34.25;;;;;9.51;69.89;103380.72;5047563;28;47275;-70
2022/01/17 12:49:24;;;;;;;;;32.75;25.00;;;;;9.44;69.76;103377.13;5048776;28;46300;-73
2022/01/17 12:51:52;;;;;;;;;46.25;32.50;;;;;9.38;70.29;103350.34;5053180;28;45299;-70
2022/01/17 12:54:21;;;;;;;;;36.75;33.75;;;;;9.25;70.41;103339.66;5054149;28;45416;-72
2022/01/17 12:56:49;;;;;;;;;42.75;36.50;;;;;9.27;70.43;103349.44;5054627;28;46924;-72
2022/01/17 12:59:16;;;;;;;;;40.50;35.00;;;;;9.31;70.60;103356.59;5053230;28;45327;-72
2022/01/17 13:02:01;;;;;;;;;47.75;37.50;;;;;9.31;70.17;103353.03;5054731;28;45587;-71
2022/01/17 13:04:32;;;;;;;;;38.00;32.25;;;;;9.40;70.60;103371.78;5050541;28;45650;-71
2022/01/17 13:06:57;;;;;;;;;34.25;28.75;;;;;9.48;70.40;103368.22;5055265;28;45410;-70
2022/01/17 13:09:24;;;;;;;;;44.25;37.25;;;;;9.44;69.73;103346.81;5054776;28;46914;-70
2022/01/17 13:11:52;;;;;;;;;42.75;31.00;;;;;9.44;69.81;103330.75;5055327;28;45233;-71
2022/01/17 13:14:20;;;;;;;;;34.75;28.50;;;;;9.51;69.61;103332.53;5059925;28;45492;-72
2022/01/17 13:16:48;;;;;;;;;38.75;32.00;;;;;9.55;69.79;103339.66;5037151;28;45443;-71
2022/01/17 13:19:15;;;;;;;;;37.25;30.75;;;;;9.53;69.76;103336.06;5036670;28;46131;-70
2022/01/17 13:21:43;;;;;;;;;41.50;35.00;;;;;9.52;69.45;103333.41;5055059;28;45343;-70
2022/01/17 13:24:32;;;;;;;;;34.75;30.00;;;;;9.50;69.13;103330.72;5054572;28;45339;-70
2022/01/17 13:27:09;;;;;;;;;42.25;34.75;;;;;9.48;68.97;103338.75;5054623;28;45497;-71
2022/01/17 13:29:39;;;;;;;;;34.00;29.00;;;;;9.51;68.70;103347.69;5054708;28;45485;-71
2022/01/17 13:32:06;;;;;;;;;41.25;34.50;;;;;9.46;68.48;103356.59;5054128;28;45468;-72
2022/01/17 13:34:31;;;;;;;;;24.75;24.25;;;;;9.45;69.04;103378.03;5054488;28;45481;-72
2022/01/17 13:37:04;;;;;;;;;32.00;26.50;;;;;9.36;69.11;103389.63;5053936;28;46352;-72
2022/01/17 13:39:29;;;;;;;;;33.25;28.25;;;;;9.28;69.65;103391.38;5054532;28;45371;-72
2022/01/17 13:42:00;;;;;;;;;24.75;24.25;;;;;9.27;69.28;103384.25;5054234;28;45386;-73
2022/01/17 13:44:31;;;;;;;;;25.50;23.75;;;;;9.24;69.44;103378.91;5036122;28;45326;-72
2022/01/17 13:47:11;;;;;;;;;31.75;26.50;;;;;9.19;69.51;103342.28;5054008;28;46326;-73
2022/01/17 13:49:48;;;;;;;;;39.00;30.50;;;;;9.21;68.83;103333.38;5053981;28;45294;-73
2022/01/17 13:52:16;;;;;;;;;38.75;30.50;;;;;9.22;68.85;103323.56;5053762;28;45458;-74
2022/01/17 13:54:47;;;;;;;;;29.75;24.75;;;;;9.27;68.84;103309.28;5049906;28;45671;-73
2022/01/17 13:57:15;;;;;;;;;35.00;27.50;;;;;9.35;68.28;103301.28;5053787;28;45493;-72
2022/01/17 13:59:41;;;;;;;;;29.75;27.75;;;;;9.37;68.43;103304.84;5053498;28;45426;-72
2022/01/17 14:02:16;;;;;;;;;33.50;26.00;;;;;9.21;68.21;103293.25;5054379;28;45379;-73
2022/01/17 14:04:42;;;;;;;;;26.50;21.00;;;;;9.32;68.53;103318.25;5053728;28;45469;-72
2022/01/17 14:07:25;;;;;;;;;25.75;24.00;;;;;9.29;68.55;103318.22;5053508;28;45538;-71
2022/01/17 14:09:51;;;;;;;;;28.00;24.75;;;;;9.27;68.79;103319.13;5054022;28;45324;-71
2022/01/17 14:12:17;;;;;;;;;32.00;24.25;;;;;9.21;68.49;103321.78;5053828;28;45305;-71
2022/01/17 14:14:47;;;;;;;;;28.25;25.50;;;;;9.27;69.23;103330.72;5053806;28;45534;-72
2022/01/17 14:17:22;;;;;;;;;29.25;26.00;;;;;9.21;68.64;103333.38;5053202;28;45350;-73
2022/01/17 14:19:48;;;;;;;;;35.50;26.00;;;;;9.24;68.87;103336.09;5054306;28;45445;-74
2022/01/17 14:22:13;;;;;;;;;29.25;26.75;;;;;9.13;68.58;103310.19;5056677;28;45641;-74
2022/01/17 14:24:41;;;;;;;;;27.25;25.50;;;;;9.27;69.00;103321.81;5057277;28;45315;-72
2022/01/17 14:27:19;;;;;;;;;33.75;24.75;;;;;9.21;67.84;103324.47;5057095;28;46319;-73
2022/01/17 14:29:50;;;;;;;;;31.75;27.00;;;;;9.19;69.13;103335.16;5039406;28;45527;-72
2022/01/17 14:32:19;;;;;;;;;27.00;23.00;;;;;9.19;68.02;103335.16;5038469;28;45524;-72
2022/01/17 14:34:53;;;;;;;;;29.00;24.50;;;;;9.17;68.03;103330.72;5057579;28;45640;-76
2022/01/17 14:37:24;;;;;;;;;24.00;20.25;;;;;9.13;67.71;103324.47;5056602;28;46127;-72
2022/01/17 14:40:04;;;;;;;;;24.25;18.25;;;;;9.19;68.24;103328.91;5038419;28;46046;-72
2022/01/17 14:42:37;;;;;;;;;19.25;17.00;;;;;9.14;67.58;103320.91;5057194;28;45430;-72
2022/01/17 14:45:05;;;;;;;;;23.75;21.75;;;;;9.21;68.41;103337.84;5056818;28;45604;-74
2022/01/17 14:47:41;;;;;;;;;26.00;22.25;;;;;9.23;68.19;103350.34;5055989;28;46247;-74
2022/01/17 14:50:09;;;;;;;;;25.75;20.50;;;;;9.18;67.63;103345.91;5056959;28;45339;-72
2022/01/17 14:52:40;;;;;;;;;25.50;22.25;;;;;9.24;68.00;103359.28;5055926;28;45314;-71
2022/01/17 15:01:10;;;;;;;;;19.50;19.50;;;;;9.20;68.24;103362.81;5056639;28;45343;-73
2022/01/17 15:03:19;;;;;;;;;27.00;20.75;;;;;9.20;67.96;103344.09;5050612;28;45477;-73
2022/01/17 15:05:45;;;;;;;;;22.25;20.00;;;;;9.23;68.33;103347.69;5056537;28;45550;-73
2022/01/17 15:08:12;;;;;;;;;28.75;24.50;;;;;9.32;67.54;103349.47;5056387;28;46111;-72
2022/01/17 15:10:39;;;;;;;;;27.25;23.25;;;;;9.21;67.46;103332.50;5056509;28;45374;-73
2022/01/17 15:13:09;;;;;;;;;22.75;20.25;;;;;9.29;67.82;103350.34;5056363;28;45549;-74
2022/01/17 15:15:38;;;;;;;;;16.75;15.75;;;;;9.29;66.92;103346.78;5056409;28;45281;-71
2022/01/17 15:18:08;;;;;;;;;17.00;16.50;;;;;9.23;67.62;103345.00;5056382;28;45968;-71
2022/01/17 15:20:34;;;;;;;;;24.25;17.50;;;;;9.28;67.07;103361.03;5056572;28;45458;-71
2022/01/17 15:23:02;;;;;;;;;16.00;15.00;;;;;9.30;67.17;103369.97;5056292;28;45288;-71
2022/01/17 15:25:27;;;;;;;;;18.50;16.75;;;;;9.31;67.30;103382.47;5056182;28;45370;-73
2022/01/17 15:27:53;;;;;;;;;21.75;17.50;;;;;9.25;67.21;103371.78;5056323;28;45483;-71
2022/01/17 15:30:19;;;;;;;;;23.00;18.25;;;;;9.25;66.38;103375.34;5055874;28;45313;-74
2022/01/17 15:32:48;;;;;;;;;15.50;13.75;;;;;9.22;66.58;103366.41;5056018;28;45592;-72
2022/01/17 15:35:15;;;;;;;;;14.75;14.75;;;;;9.21;66.93;103365.50;5056390;28;45428;-72
2022/01/17 15:37:41;;;;;;;;;23.00;17.75;;;;;9.25;67.08;103374.44;5056099;28;46197;-72
2022/01/17 15:40:07;;;;;;;;;22.00;19.00;;;;;9.21;66.73;103368.19;5055727;28;45457;-72
2022/01/17 15:42:32;;;;;;;;;22.25;16.75;;;;;9.17;66.92;103347.69;5056230;28;45450;-73
2022/01/17 15:44:58;;;;;;;;;29.25;20.50;;;;;9.27;66.98;103361.97;5055800;28;45446;-72
2022/01/17 15:47:24;;;;;;;;;18.25;15.00;;;;;9.25;67.22;103364.63;5055221;28;45381;-71
2022/01/17 15:49:49;;;;;;;;;19.00;16.50;;;;;9.23;66.97;103366.41;5056126;28;45562;-72
2022/01/17 15:52:16;;;;;;;;;17.75;14.50;;;;;9.26;67.37;103377.13;5056436;28;45383;-72
2022/01/17 15:54:42;;;;;;;;;16.50;16.50;;;;;9.23;67.03;103360.16;5037822;28;46345;-75
2022/01/17 15:57:09;;;;;;;;;18.75;15.25;;;;;9.33;67.31;103368.22;5056259;28;46869;-72
2022/01/17 15:59:36;;;;;;;;;19.50;15.25;;;;;9.34;67.09;103369.13;5055675;28;45459;-73
2022/01/17 16:02:04;;;;;;;;;24.50;20.00;;;;;9.14;66.16;103360.16;5055789;28;45515;-77
2022/01/17 16:04:29;;;;;;;;;19.75;16.25;;;;;9.29;66.77;103395.84;5055187;28;45509;-76
2022/01/17 16:06:55;;;;;;;;;22.75;16.00;;;;;9.36;67.48;103416.38;5038517;28;46904;-76
2022/01/17 16:09:20;;;;;;;;;19.50;10.25;;;;;9.40;66.93;103403.91;5034909;28;45488;-75
2022/01/17 16:11:46;;;;;;;;;16.75;15.00;;;;;9.42;66.54;103403.03;5038873;28;45406;-74
2022/01/17 16:14:14;;;;;;;;;18.00;14.75;;;;;9.46;66.03;103398.56;5056527;28;45532;-76
2022/01/17 16:16:41;;;;;;;;;10.00;10.00;;;;;9.46;65.69;103396.78;5056117;28;46201;-75
2022/01/17 16:19:09;;;;;;;;;20.50;17.00;;;;;9.45;65.15;103392.31;5037536;28;45730;-72
2022/01/17 16:21:36;;;;;;;;;20.75;17.25;;;;;9.53;65.84;103397.66;5056287;28;45403;-71
2022/01/17 16:24:07;;;;;;;;;19.75;16.50;;;;;9.56;65.98;103403.03;5038134;28;46287;-71
2022/01/17 16:26:36;;;;;;;;;14.75;12.50;;;;;9.53;65.40;103394.13;5037802;28;46314;-70
2022/01/17 16:29:03;;;;;;;;;19.75;18.25;;;;;9.54;65.90;103399.44;5055130;28;45424;-72
2022/01/17 16:31:30;;;;;;;;;21.25;16.50;;;;;9.58;66.26;103401.25;5070813;28;45476;-72
2022/01/17 16:33:56;;;;;;;;;17.50;15.25;;;;;9.61;65.97;103398.56;5068571;28;45560;-71
2022/01/17 16:36:22;;;;;;;;;20.75;15.25;;;;;9.47;65.68;103368.22;5055544;28;46432;-71
2022/01/17 16:38:48;;;;;;;;;28.50;19.00;;;;;9.51;66.00;103377.16;5055059;28;45327;-72
2022/01/17 16:41:15;;;;;;;;;20.75;16.25;;;;;9.45;65.13;103375.34;5056014;28;45352;-73
2022/01/17 16:43:43;;;;;;;;;18.75;15.00;;;;;9.48;66.28;103380.72;5055027;28;45543;-74
2022/01/17 16:46:09;;;;;;;;;25.25;19.50;;;;;9.41;66.20;103373.56;5055739;28;46066;-73
2022/01/17 16:48:36;;;;;;;;;17.25;17.00;;;;;9.48;66.04;103386.06;5056377;28;45424;-76
2022/01/17 16:51:02;;;;;;;;;23.50;17.00;;;;;9.48;65.53;103381.59;5056774;28;45445;-74
2022/01/17 16:53:27;;;;;;;;;17.25;11.00;;;;;9.54;65.75;103398.56;5054896;28;45319;-72
2022/01/17 16:55:53;;;;;;;;;25.00;18.50;;;;;9.47;65.84;103395.88;5055028;28;45402;-74
2022/01/17 16:58:20;;;;;;;;;21.25;17.75;;;;;9.45;65.91;103408.38;5054175;28;45427;-74
2022/01/17 17:00:46;;;;;;;;;33.00;22.00;;;;;9.38;66.19;103397.66;5035178;28;45468;-73
2022/01/17 17:03:12;;;;;;;;;27.00;22.25;;;;;9.07;66.21;103345.88;5052890;28;45374;-75
2022/01/17 17:05:37;;;;;;;;;22.00;18.50;;;;;9.32;66.46;103405.69;5054318;28;46395;-74
2022/01/17 17:08:05;;;;;;;;;27.50;26.00;;;;;9.31;66.58;103399.44;5054894;28;45314;-75